sensor_id;sensor_type;location;lat;lon;timestamp;temperature;humidity
5429;DHT22;2737;52.386;9.980;2023-04-15T00:02:15;6.70;99.90
5429;DHT22;2737;52.386;9.980;2023-04-15T00:04:44;6.70;99.90
5429;DHT22;2737;52.386;9.980;2023-04-15T00:07:11;6.70;99.90
5429;DHT22;2737;52.386;9.980;2023-04-15T00:09:39;6.70;99.90
5429;DHT22;2737;52.386;9.980;2023-04-15T00:12:06;6.70;99.90
5429;DHT22;2737;52.386;9.980;2023-04-15T00:14:34;6.80;99.90
5429;DHT22;2737;52.386;9.980;2023-04-15T00:17:01;6.70;99.90
5429;DHT22;2737;52.386;9.980;2023-04-15T00:19:29;6.80;99.90
5429;DHT22;2737;52.386;9.980;2023-04-15T00:21:57;6.70;99.90
5429;DHT22;2737;52.386;9.980;2023-04-15T00:24:24;6.70;99.90
5429;DHT22;2737;52.386;9.980;2023-04-15T00:26:51;6.60;99.90
5429;DHT22;2737;52.386;9.980;2023-04-15T00:29:18;6.60;99.90
5429;DHT22;2737;52.386;9.980;2023-04-15T00:31:45;6.60;99.90
5429;DHT22;2737;52.386;9.980;2023-04-15T00:34:12;6.70;99.90
5429;DHT22;2737;52.386;9.980;2023-04-15T00:36:39;6.60;99.90
5429;DHT22;2737;52.386;9.980;2023-04-15T00:39:08;6.60;99.90
5429;DHT22;2737;52.386;9.980;2023-04-15T00:41:35;6.70;99.90
5429;DHT22;2737;52.386;9.980;2023-04-15T00:44:04;6.60;99.90
5429;DHT22;2737;52.386;9.980;2023-04-15T00:46:34;6.60;99.90
5429;DHT22;2737;52.386;9.980;2023-04-15T00:49:03;6.60;99.90
5429;DHT22;2737;52.386;9.980;2023-04-15T00:51:30;6.50;99.90
5429;DHT22;2737;52.386;9.980;2023-04-15T00:54:01;6.50;99.90
5429;DHT22;2737;52.386;9.980;2023-04-15T00:56:29;6.50;99.90
5429;DHT22;2737;52.386;9.980;2023-04-15T00:58:57;6.50;99.90
5429;DHT22;2737;52.386;9.980;2023-04-15T01:01:25;6.40;99.90
5429;DHT22;2737;52.386;9.980;2023-04-15T01:03:52;6.40;99.90
5429;DHT22;2737;52.386;9.980;2023-04-15T01:06:19;6.40;99.90
5429;DHT22;2737;52.386;9.980;2023-04-15T01:08:46;6.40;99.90
5429;DHT22;2737;52.386;9.980;2023-04-15T01:11:14;6.40;99.90
5429;DHT22;2737;52.386;9.980;2023-04-15T01:13:43;6.40;99.90
5429;DHT22;2737;52.386;9.980;2023-04-15T01:16:10;6.40;99.90
5429;DHT22;2737;52.386;9.980;2023-04-15T01:18:38;6.40;99.90
5429;DHT22;2737;52.386;9.980;2023-04-15T01:21:05;6.40;99.90
5429;DHT22;2737;52.386;9.980;2023-04-15T01:23:35;6.40;99.90
5429;DHT22;2737;52.386;9.980;2023-04-15T01:26:05;6.40;99.90
5429;DHT22;2737;52.386;9.980;2023-04-15T01:28:33;6.30;99.90
5429;DHT22;2737;52.386;9.980;2023-04-15T01:31:08;6.40;99.90
5429;DHT22;2737;52.386;9.980;2023-04-15T01:33:35;6.40;99.90
5429;DHT22;2737;52.386;9.980;2023-04-15T01:36:03;6.40;99.90
5429;DHT22;2737;52.386;9.980;2023-04-15T01:38:31;6.40;99.90
5429;DHT22;2737;52.386;9.980;2023-04-15T01:40:59;6.40;99.90
5429;DHT22;2737;52.386;9.980;2023-04-15T01:43:27;6.40;99.90
5429;DHT22;2737;52.386;9.980;2023-04-15T01:45:54;6.40;99.90
5429;DHT22;2737;52.386;9.980;2023-04-15T01:48:22;6.40;99.90
5429;DHT22;2737;52.386;9.980;2023-04-15T01:50:49;6.50;99.90
5429;DHT22;2737;52.386;9.980;2023-04-15T01:53:16;6.50;99.90
5429;DHT22;2737;52.386;9.980;2023-04-15T01:55:43;6.50;99.90
5429;DHT22;2737;52.386;9.980;2023-04-15T01:58:10;6.60;99.90
5429;DHT22;2737;52.386;9.980;2023-04-15T02:00:39;6.60;99.90
5429;DHT22;2737;52.386;9.980;2023-04-15T02:03:06;6.60;99.90
5429;DHT22;2737;52.386;9.980;2023-04-15T02:05:33;6.50;99.90
5429;DHT22;2737;52.386;9.980;2023-04-15T02:08:00;6.50;99.90
5429;DHT22;2737;52.386;9.980;2023-04-15T02:10:28;6.60;99.90
5429;DHT22;2737;52.386;9.980;2023-04-15T02:12:55;6.50;99.90
5429;DHT22;2737;52.386;9.980;2023-04-15T02:15:22;6.50;99.90
5429;DHT22;2737;52.386;9.980;2023-04-15T02:17:51;6.60;99.90
5429;DHT22;2737;52.386;9.980;2023-04-15T02:20:20;6.50;99.90
5429;DHT22;2737;52.386;9.980;2023-04-15T02:22:48;6.60;99.90
5429;DHT22;2737;52.386;9.980;2023-04-15T02:25:15;6.60;99.90
5429;DHT22;2737;52.386;9.980;2023-04-15T02:27:42;6.60;99.90
5429;DHT22;2737;52.386;9.980;2023-04-15T02:30:10;6.60;99.90
5429;DHT22;2737;52.386;9.980;2023-04-15T02:32:37;6.60;99.90
5429;DHT22;2737;52.386;9.980;2023-04-15T02:35:07;6.60;99.90
5429;DHT22;2737;52.386;9.980;2023-04-15T02:37:35;6.60;99.90
5429;DHT22;2737;52.386;9.980;2023-04-15T02:40:07;6.60;99.90
5429;DHT22;2737;52.386;9.980;2023-04-15T02:42:35;6.60;99.90
5429;DHT22;2737;52.386;9.980;2023-04-15T02:45:03;6.60;99.90
5429;DHT22;2737;52.386;9.980;2023-04-15T02:47:30;6.60;99.90
5429;DHT22;2737;52.386;9.980;2023-04-15T02:49:57;6.60;99.90
5429;DHT22;2737;52.386;9.980;2023-04-15T02:52:27;6.60;99.90
5429;DHT22;2737;52.386;9.980;2023-04-15T02:54:53;6.60;99.90
5429;DHT22;2737;52.386;9.980;2023-04-15T02:57:25;6.60;99.90
5429;DHT22;2737;52.386;9.980;2023-04-15T02:59:52;6.70;99.90
5429;DHT22;2737;52.386;9.980;2023-04-15T03:02:19;6.60;99.90
5429;DHT22;2737;52.386;9.980;2023-04-15T03:04:46;6.60;99.90
5429;DHT22;2737;52.386;9.980;2023-04-15T03:07:13;6.60;99.90
5429;DHT22;2737;52.386;9.980;2023-04-15T03:09:41;6.60;99.90
5429;DHT22;2737;52.386;9.980;2023-04-15T03:12:09;6.60;99.90
5429;DHT22;2737;52.386;9.980;2023-04-15T03:14:36;6.60;99.90
5429;DHT22;2737;52.386;9.980;2023-04-15T03:17:03;6.60;99.90
5429;DHT22;2737;52.386;9.980;2023-04-15T03:19:30;6.60;99.90
5429;DHT22;2737;52.386;9.980;2023-04-15T03:21:57;6.50;99.90
5429;DHT22;2737;52.386;9.980;2023-04-15T03:24:25;6.60;99.90
5429;DHT22;2737;52.386;9.980;2023-04-15T03:26:55;6.50;99.90
5429;DHT22;2737;52.386;9.980;2023-04-15T03:29:22;6.50;99.90
5429;DHT22;2737;52.386;9.980;2023-04-15T03:31:51;6.50;99.90
5429;DHT22;2737;52.386;9.980;2023-04-15T03:34:18;6.50;99.90
5429;DHT22;2737;52.386;9.980;2023-04-15T03:36:45;6.50;99.90
5429;DHT22;2737;52.386;9.980;2023-04-15T03:39:12;6.50;99.90
5429;DHT22;2737;52.386;9.980;2023-04-15T03:41:39;6.40;99.90
5429;DHT22;2737;52.386;9.980;2023-04-15T03:44:08;6.30;99.90
5429;DHT22;2737;52.386;9.980;2023-04-15T03:46:35;6.40;99.90
5429;DHT22;2737;52.386;9.980;2023-04-15T03:49:02;6.40;99.90
5429;DHT22;2737;52.386;9.980;2023-04-15T03:51:29;6.40;99.90
5429;DHT22;2737;52.386;9.980;2023-04-15T03:53:57;6.40;99.90
5429;DHT22;2737;52.386;9.980;2023-04-15T03:56:24;6.40;99.90
5429;DHT22;2737;52.386;9.980;2023-04-15T03:58:51;6.40;99.90
5429;DHT22;2737;52.386;9.980;2023-04-15T04:01:20;6.40;99.90
5429;DHT22;2737;52.386;9.980;2023-04-15T04:03:47;6.40;99.90
5429;DHT22;2737;52.386;9.980;2023-04-15T04:06:14;6.30;99.90
5429;DHT22;2737;52.386;9.980;2023-04-15T04:08:41;6.30;99.90
5429;DHT22;2737;52.386;9.980;2023-04-15T04:11:08;6.40;99.90
5429;DHT22;2737;52.386;9.980;2023-04-15T04:13:35;6.40;99.90
5429;DHT22;2737;52.386;9.980;2023-04-15T04:16:03;6.30;99.90
5429;DHT22;2737;52.386;9.980;2023-04-15T04:18:32;6.30;99.90
5429;DHT22;2737;52.386;9.980;2023-04-15T04:20:59;6.30;99.90
5429;DHT22;2737;52.386;9.980;2023-04-15T04:23:26;6.30;99.90
5429;DHT22;2737;52.386;9.980;2023-04-15T04:25:53;6.30;99.90
5429;DHT22;2737;52.386;9.980;2023-04-15T04:28:21;6.20;99.90
5429;DHT22;2737;52.386;9.980;2023-04-15T04:30:48;6.20;99.90
5429;DHT22;2737;52.386;9.980;2023-04-15T04:33:15;6.20;99.90
5429;DHT22;2737;52.386;9.980;2023-04-15T04:35:43;6.20;99.90
5429;DHT22;2737;52.386;9.980;2023-04-15T04:38:10;6.20;99.90
5429;DHT22;2737;52.386;9.980;2023-04-15T04:40:37;6.20;99.90
5429;DHT22;2737;52.386;9.980;2023-04-15T04:43:04;6.20;99.90
5429;DHT22;2737;52.386;9.980;2023-04-15T04:45:31;6.20;99.90
5429;DHT22;2737;52.386;9.980;2023-04-15T04:47:58;6.30;99.90
5429;DHT22;2737;52.386;9.980;2023-04-15T04:50:25;6.20;99.90
5429;DHT22;2737;52.386;9.980;2023-04-15T04:52:54;6.30;99.90
5429;DHT22;2737;52.386;9.980;2023-04-15T04:55:21;6.30;99.90
5429;DHT22;2737;52.386;9.980;2023-04-15T04:57:48;6.30;99.90
5429;DHT22;2737;52.386;9.980;2023-04-15T05:00:16;6.30;99.90
5429;DHT22;2737;52.386;9.980;2023-04-15T05:02:43;6.30;99.90
5429;DHT22;2737;52.386;9.980;2023-04-15T05:05:11;6.30;99.90
5429;DHT22;2737;52.386;9.980;2023-04-15T05:07:38;6.30;99.90
5429;DHT22;2737;52.386;9.980;2023-04-15T05:10:08;6.30;99.90
5429;DHT22;2737;52.386;9.980;2023-04-15T05:12:35;6.30;99.90
5429;DHT22;2737;52.386;9.980;2023-04-15T05:15:03;6.30;99.90
5429;DHT22;2737;52.386;9.980;2023-04-15T05:17:30;6.30;99.90
5429;DHT22;2737;52.386;9.980;2023-04-15T05:19:59;6.30;99.90
5429;DHT22;2737;52.386;9.980;2023-04-15T05:22:26;6.30;99.90
5429;DHT22;2737;52.386;9.980;2023-04-15T05:24:53;6.30;99.90
5429;DHT22;2737;52.386;9.980;2023-04-15T05:27:22;6.30;99.90
5429;DHT22;2737;52.386;9.980;2023-04-15T05:29:49;6.30;99.90
5429;DHT22;2737;52.386;9.980;2023-04-15T05:32:16;6.30;99.90
5429;DHT22;2737;52.386;9.980;2023-04-15T05:34:43;6.30;99.90
5429;DHT22;2737;52.386;9.980;2023-04-15T05:37:10;6.30;99.90
5429;DHT22;2737;52.386;9.980;2023-04-15T05:39:37;6.40;99.90
5429;DHT22;2737;52.386;9.980;2023-04-15T05:42:04;6.30;99.90
5429;DHT22;2737;52.386;9.980;2023-04-15T05:44:33;6.30;99.90
5429;DHT22;2737;52.386;9.980;2023-04-15T05:47:00;6.30;99.90
5429;DHT22;2737;52.386;9.980;2023-04-15T05:49:28;6.30;99.90
5429;DHT22;2737;52.386;9.980;2023-04-15T05:51:55;6.30;99.90
5429;DHT22;2737;52.386;9.980;2023-04-15T05:54:22;6.30;99.90
5429;DHT22;2737;52.386;9.980;2023-04-15T05:56:49;6.30;99.90
5429;DHT22;2737;52.386;9.980;2023-04-15T05:59:16;6.30;99.90
5429;DHT22;2737;52.386;9.980;2023-04-15T06:01:44;6.30;99.90
5429;DHT22;2737;52.386;9.980;2023-04-15T06:04:11;6.30;99.90
5429;DHT22;2737;52.386;9.980;2023-04-15T06:06:38;6.40;99.90
5429;DHT22;2737;52.386;9.980;2023-04-15T06:09:06;6.30;99.90
5429;DHT22;2737;52.386;9.980;2023-04-15T06:11:33;6.40;99.90
5429;DHT22;2737;52.386;9.980;2023-04-15T06:14:00;6.40;99.90
5429;DHT22;2737;52.386;9.980;2023-04-15T06:16:27;6.40;99.90
5429;DHT22;2737;52.386;9.980;2023-04-15T06:18:56;6.40;99.90
5429;DHT22;2737;52.386;9.980;2023-04-15T06:21:23;6.40;99.90
5429;DHT22;2737;52.386;9.980;2023-04-15T06:23:50;6.40;99.90
5429;DHT22;2737;52.386;9.980;2023-04-15T06:26:17;6.40;99.90
5429;DHT22;2737;52.386;9.980;2023-04-15T06:28:44;6.40;99.90
5429;DHT22;2737;52.386;9.980;2023-04-15T06:31:11;6.40;99.90
5429;DHT22;2737;52.386;9.980;2023-04-15T06:33:38;6.40;99.90
5429;DHT22;2737;52.386;9.980;2023-04-15T06:36:07;6.50;99.90
5429;DHT22;2737;52.386;9.980;2023-04-15T06:38:33;6.50;99.90
5429;DHT22;2737;52.386;9.980;2023-04-15T06:41:01;6.50;99.90
5429;DHT22;2737;52.386;9.980;2023-04-15T06:43:28;6.50;99.90
5429;DHT22;2737;52.386;9.980;2023-04-15T06:45:55;6.60;99.90
5429;DHT22;2737;52.386;9.980;2023-04-15T06:48:22;6.60;99.90
5429;DHT22;2737;52.386;9.980;2023-04-15T06:50:49;6.60;99.90
5429;DHT22;2737;52.386;9.980;2023-04-15T06:53:18;6.60;99.90
5429;DHT22;2737;52.386;9.980;2023-04-15T06:55:45;6.60;99.90
5429;DHT22;2737;52.386;9.980;2023-04-15T06:58:12;6.60;99.90
5429;DHT22;2737;52.386;9.980;2023-04-15T07:00:39;6.60;99.90
5429;DHT22;2737;52.386;9.980;2023-04-15T07:03:06;6.70;99.90
5429;DHT22;2737;52.386;9.980;2023-04-15T07:05:35;6.70;99.90
5429;DHT22;2737;52.386;9.980;2023-04-15T07:08:03;6.70;99.90
5429;DHT22;2737;52.386;9.980;2023-04-15T07:10:32;6.80;99.90
5429;DHT22;2737;52.386;9.980;2023-04-15T07:12:59;6.70;99.90
5429;DHT22;2737;52.386;9.980;2023-04-15T07:15:26;6.70;99.90
5429;DHT22;2737;52.386;9.980;2023-04-15T07:17:53;6.80;99.90
5429;DHT22;2737;52.386;9.980;2023-04-15T07:20:20;6.80;99.90
5429;DHT22;2737;52.386;9.980;2023-04-15T07:22:47;6.80;99.90
5429;DHT22;2737;52.386;9.980;2023-04-15T07:25:14;6.80;99.90
5429;DHT22;2737;52.386;9.980;2023-04-15T07:27:43;6.80;99.90
5429;DHT22;2737;52.386;9.980;2023-04-15T07:30:11;6.90;99.90
5429;DHT22;2737;52.386;9.980;2023-04-15T07:32:38;6.90;99.90
5429;DHT22;2737;52.386;9.980;2023-04-15T07:35:06;6.90;99.90
5429;DHT22;2737;52.386;9.980;2023-04-15T07:37:33;6.90;99.90
5429;DHT22;2737;52.386;9.980;2023-04-15T07:40:00;6.90;99.90
5429;DHT22;2737;52.386;9.980;2023-04-15T07:42:29;7.00;99.90
5429;DHT22;2737;52.386;9.980;2023-04-15T07:44:57;6.90;99.90
5429;DHT22;2737;52.386;9.980;2023-04-15T07:47:24;6.90;99.90
5429;DHT22;2737;52.386;9.980;2023-04-15T07:49:52;7.00;99.90
5429;DHT22;2737;52.386;9.980;2023-04-15T07:52:19;7.00;99.90
5429;DHT22;2737;52.386;9.980;2023-04-15T07:54:47;7.10;99.90
5429;DHT22;2737;52.386;9.980;2023-04-15T07:57:14;7.10;99.90
5429;DHT22;2737;52.386;9.980;2023-04-15T07:59:41;7.10;99.90
5429;DHT22;2737;52.386;9.980;2023-04-15T08:02:10;7.00;99.90
5429;DHT22;2737;52.386;9.980;2023-04-15T08:04:37;7.00;99.90
5429;DHT22;2737;52.386;9.980;2023-04-15T08:07:04;7.00;99.90
5429;DHT22;2737;52.386;9.980;2023-04-15T08:09:31;7.00;99.90
5429;DHT22;2737;52.386;9.980;2023-04-15T08:11:58;7.10;99.90
5429;DHT22;2737;52.386;9.980;2023-04-15T08:14:25;7.10;99.90
5429;DHT22;2737;52.386;9.980;2023-04-15T08:16:52;7.10;99.90
5429;DHT22;2737;52.386;9.980;2023-04-15T08:19:21;7.10;99.90
5429;DHT22;2737;52.386;9.980;2023-04-15T08:21:48;7.20;99.90
5429;DHT22;2737;52.386;9.980;2023-04-15T08:24:15;7.20;99.90
5429;DHT22;2737;52.386;9.980;2023-04-15T08:26:43;7.10;99.90
5429;DHT22;2737;52.386;9.980;2023-04-15T08:29:11;7.20;99.90
5429;DHT22;2737;52.386;9.980;2023-04-15T08:31:38;7.20;99.90
5429;DHT22;2737;52.386;9.980;2023-04-15T08:34:05;7.20;99.90
5429;DHT22;2737;52.386;9.980;2023-04-15T08:36:34;7.20;99.90
5429;DHT22;2737;52.386;9.980;2023-04-15T08:39:01;7.20;99.90
5429;DHT22;2737;52.386;9.980;2023-04-15T08:41:33;7.20;99.90
5429;DHT22;2737;52.386;9.980;2023-04-15T08:44:05;7.20;99.90
5429;DHT22;2737;52.386;9.980;2023-04-15T08:46:33;7.20;99.90
5429;DHT22;2737;52.386;9.980;2023-04-15T08:49:02;7.20;99.90
5429;DHT22;2737;52.386;9.980;2023-04-15T08:51:30;7.20;99.90
5429;DHT22;2737;52.386;9.980;2023-04-15T08:53:59;7.30;99.90
5429;DHT22;2737;52.386;9.980;2023-04-15T08:56:27;7.30;99.90
5429;DHT22;2737;52.386;9.980;2023-04-15T08:58:57;7.30;99.90
5429;DHT22;2737;52.386;9.980;2023-04-15T09:01:25;7.30;99.90
5429;DHT22;2737;52.386;9.980;2023-04-15T09:03:53;7.40;99.90
5429;DHT22;2737;52.386;9.980;2023-04-15T09:06:20;7.50;99.90
5429;DHT22;2737;52.386;9.980;2023-04-15T09:08:48;7.50;99.90
5429;DHT22;2737;52.386;9.980;2023-04-15T09:11:17;7.50;99.90
5429;DHT22;2737;52.386;9.980;2023-04-15T09:13:44;7.50;99.90
5429;DHT22;2737;52.386;9.980;2023-04-15T09:16:12;7.50;99.90
5429;DHT22;2737;52.386;9.980;2023-04-15T09:18:40;7.50;99.90
5429;DHT22;2737;52.386;9.980;2023-04-15T09:21:09;7.60;99.90
5429;DHT22;2737;52.386;9.980;2023-04-15T09:23:37;7.60;99.90
5429;DHT22;2737;52.386;9.980;2023-04-15T09:26:04;7.60;99.90
5429;DHT22;2737;52.386;9.980;2023-04-15T09:28:40;7.60;99.90
5429;DHT22;2737;52.386;9.980;2023-04-15T09:31:07;7.60;99.90
5429;DHT22;2737;52.386;9.980;2023-04-15T09:33:35;7.60;99.90
5429;DHT22;2737;52.386;9.980;2023-04-15T09:36:19;7.60;99.90
5429;DHT22;2737;52.386;9.980;2023-04-15T09:38:54;7.60;99.90
5429;DHT22;2737;52.386;9.980;2023-04-15T09:41:22;7.60;99.90
5429;DHT22;2737;52.386;9.980;2023-04-15T09:43:50;7.70;99.90
5429;DHT22;2737;52.386;9.980;2023-04-15T09:46:18;7.70;99.90
5429;DHT22;2737;52.386;9.980;2023-04-15T09:48:45;7.70;99.90
5429;DHT22;2737;52.386;9.980;2023-04-15T09:51:12;7.80;99.90
5429;DHT22;2737;52.386;9.980;2023-04-15T09:53:40;7.90;99.90
5429;DHT22;2737;52.386;9.980;2023-04-15T09:56:07;8.00;99.90
5429;DHT22;2737;52.386;9.980;2023-04-15T09:58:35;7.90;99.90
5429;DHT22;2737;52.386;9.980;2023-04-15T10:01:07;7.90;99.90
5429;DHT22;2737;52.386;9.980;2023-04-15T10:03:36;7.90;99.90
5429;DHT22;2737;52.386;9.980;2023-04-15T10:06:03;7.90;99.90
5429;DHT22;2737;52.386;9.980;2023-04-15T10:08:32;7.90;99.90
5429;DHT22;2737;52.386;9.980;2023-04-15T10:11:01;7.90;99.90
5429;DHT22;2737;52.386;9.980;2023-04-15T10:13:30;7.90;99.90
5429;DHT22;2737;52.386;9.980;2023-04-15T10:16:06;8.00;99.90
5429;DHT22;2737;52.386;9.980;2023-04-15T10:18:35;8.00;99.90
5429;DHT22;2737;52.386;9.980;2023-04-15T10:21:04;8.00;99.90
5429;DHT22;2737;52.386;9.980;2023-04-15T10:23:32;8.00;99.90
5429;DHT22;2737;52.386;9.980;2023-04-15T10:26:00;8.10;99.90
5429;DHT22;2737;52.386;9.980;2023-04-15T10:28:28;8.10;99.90
5429;DHT22;2737;52.386;9.980;2023-04-15T10:30:55;8.10;99.90
5429;DHT22;2737;52.386;9.980;2023-04-15T10:33:25;8.20;99.90
5429;DHT22;2737;52.386;9.980;2023-04-15T10:35:54;8.20;99.90
5429;DHT22;2737;52.386;9.980;2023-04-15T10:38:32;8.30;99.90
5429;DHT22;2737;52.386;9.980;2023-04-15T10:41:17;8.30;99.90
5429;DHT22;2737;52.386;9.980;2023-04-15T10:43:49;8.30;99.90
5429;DHT22;2737;52.386;9.980;2023-04-15T10:46:26;8.30;99.90
5429;DHT22;2737;52.386;9.980;2023-04-15T10:49:06;8.40;99.90
5429;DHT22;2737;52.386;9.980;2023-04-15T10:51:37;8.50;99.90
5429;DHT22;2737;52.386;9.980;2023-04-15T10:54:11;8.50;99.90
5429;DHT22;2737;52.386;9.980;2023-04-15T10:56:41;8.50;99.90
5429;DHT22;2737;52.386;9.980;2023-04-15T10:59:08;8.60;99.90
5429;DHT22;2737;52.386;9.980;2023-04-15T11:01:52;8.60;99.90
5429;DHT22;2737;52.386;9.980;2023-04-15T11:04:56;8.70;99.90
5429;DHT22;2737;52.386;9.980;2023-04-15T11:07:34;8.50;99.90
5429;DHT22;2737;52.386;9.980;2023-04-15T11:10:01;8.60;99.90
5429;DHT22;2737;52.386;9.980;2023-04-15T11:12:35;8.60;99.90
5429;DHT22;2737;52.386;9.980;2023-04-15T11:15:27;8.70;99.90
5429;DHT22;2737;52.386;9.980;2023-04-15T11:17:55;8.70;99.90
5429;DHT22;2737;52.386;9.980;2023-04-15T11:20:24;8.80;99.90
5429;DHT22;2737;52.386;9.980;2023-04-15T11:22:53;8.80;99.90
5429;DHT22;2737;52.386;9.980;2023-04-15T11:25:24;8.80;99.90
5429;DHT22;2737;52.386;9.980;2023-04-15T11:27:53;8.80;99.90
5429;DHT22;2737;52.386;9.980;2023-04-15T11:30:22;8.70;99.90
5429;DHT22;2737;52.386;9.980;2023-04-15T11:32:52;8.80;99.90
5429;DHT22;2737;52.386;9.980;2023-04-15T11:35:20;8.80;99.90
5429;DHT22;2737;52.386;9.980;2023-04-15T11:37:50;8.80;99.90
5429;DHT22;2737;52.386;9.980;2023-04-15T11:40:22;8.80;99.90
5429;DHT22;2737;52.386;9.980;2023-04-15T11:43:03;8.80;99.90
5429;DHT22;2737;52.386;9.980;2023-04-15T11:45:31;8.90;99.90
5429;DHT22;2737;52.386;9.980;2023-04-15T11:48:05;8.90;99.90
5429;DHT22;2737;52.386;9.980;2023-04-15T11:50:32;8.90;99.90
5429;DHT22;2737;52.386;9.980;2023-04-15T11:53:02;9.00;99.90
5429;DHT22;2737;52.386;9.980;2023-04-15T11:55:30;9.00;99.90
5429;DHT22;2737;52.386;9.980;2023-04-15T11:58:08;9.00;99.90
5429;DHT22;2737;52.386;9.980;2023-04-15T12:00:36;9.00;99.90
5429;DHT22;2737;52.386;9.980;2023-04-15T12:03:20;9.00;99.90
5429;DHT22;2737;52.386;9.980;2023-04-15T12:09:10;9.00;99.90
5429;DHT22;2737;52.386;9.980;2023-04-15T12:11:40;9.10;99.90
5429;DHT22;2737;52.386;9.980;2023-04-15T12:14:15;9.10;99.90
5429;DHT22;2737;52.386;9.980;2023-04-15T12:16:44;9.00;99.90
5429;DHT22;2737;52.386;9.980;2023-04-15T12:19:12;9.10;99.90
5429;DHT22;2737;52.386;9.980;2023-04-15T12:21:42;9.10;99.90
5429;DHT22;2737;52.386;9.980;2023-04-15T12:24:11;9.10;99.90
5429;DHT22;2737;52.386;9.980;2023-04-15T12:26:44;9.10;99.90
5429;DHT22;2737;52.386;9.980;2023-04-15T12:29:12;9.10;99.90
5429;DHT22;2737;52.386;9.980;2023-04-15T12:31:47;9.20;99.90
5429;DHT22;2737;52.386;9.980;2023-04-15T12:34:15;9.20;99.90
5429;DHT22;2737;52.386;9.980;2023-04-15T12:36:42;9.20;99.90
5429;DHT22;2737;52.386;9.980;2023-04-15T12:39:11;9.30;99.90
5429;DHT22;2737;52.386;9.980;2023-04-15T12:41:38;9.30;99.90
5429;DHT22;2737;52.386;9.980;2023-04-15T12:44:05;9.30;99.90
5429;DHT22;2737;52.386;9.980;2023-04-15T12:46:33;9.30;99.90
5429;DHT22;2737;52.386;9.980;2023-04-15T12:49:00;9.40;99.90
5429;DHT22;2737;52.386;9.980;2023-04-15T12:51:27;9.50;99.90
5429;DHT22;2737;52.386;9.980;2023-04-15T12:53:54;9.60;99.90
5429;DHT22;2737;52.386;9.980;2023-04-15T12:56:22;9.60;99.90
5429;DHT22;2737;52.386;9.980;2023-04-15T12:58:49;9.50;99.90
5429;DHT22;2737;52.386;9.980;2023-04-15T13:01:17;9.60;99.90
5429;DHT22;2737;52.386;9.980;2023-04-15T13:03:44;9.60;99.90
5429;DHT22;2737;52.386;9.980;2023-04-15T13:06:12;9.60;99.90
5429;DHT22;2737;52.386;9.980;2023-04-15T13:08:39;9.70;99.90
5429;DHT22;2737;52.386;9.980;2023-04-15T13:11:07;9.70;99.90
5429;DHT22;2737;52.386;9.980;2023-04-15T13:13:35;9.70;99.90
5429;DHT22;2737;52.386;9.980;2023-04-15T13:16:02;9.80;99.90
5429;DHT22;2737;52.386;9.980;2023-04-15T13:18:29;9.90;99.90
5429;DHT22;2737;52.386;9.980;2023-04-15T13:20:56;9.90;99.90
5429;DHT22;2737;52.386;9.980;2023-04-15T13:23:23;10.10;99.90
5429;DHT22;2737;52.386;9.980;2023-04-15T13:25:50;10.30;99.90
5429;DHT22;2737;52.386;9.980;2023-04-15T13:28:18;10.40;99.90
5429;DHT22;2737;52.386;9.980;2023-04-15T13:30:46;10.50;99.90
5429;DHT22;2737;52.386;9.980;2023-04-15T13:33:15;10.60;99.90
5429;DHT22;2737;52.386;9.980;2023-04-15T13:35:42;10.70;99.90
5429;DHT22;2737;52.386;9.980;2023-04-15T13:38:09;10.80;99.90
5429;DHT22;2737;52.386;9.980;2023-04-15T13:40:36;10.80;99.90
5429;DHT22;2737;52.386;9.980;2023-04-15T13:43:03;11.00;99.90
5429;DHT22;2737;52.386;9.980;2023-04-15T13:45:30;11.10;99.90
5429;DHT22;2737;52.386;9.980;2023-04-15T13:47:59;11.20;99.90
5429;DHT22;2737;52.386;9.980;2023-04-15T13:50:26;11.10;99.90
5429;DHT22;2737;52.386;9.980;2023-04-15T13:52:53;11.10;99.90
5429;DHT22;2737;52.386;9.980;2023-04-15T13:55:20;11.00;99.90
5429;DHT22;2737;52.386;9.980;2023-04-15T13:57:47;11.00;99.90
5429;DHT22;2737;52.386;9.980;2023-04-15T14:00:15;11.10;99.90
5429;DHT22;2737;52.386;9.980;2023-04-15T14:02:42;11.20;99.90
5429;DHT22;2737;52.386;9.980;2023-04-15T14:05:11;11.30;99.90
5429;DHT22;2737;52.386;9.980;2023-04-15T14:07:38;11.50;99.90
5429;DHT22;2737;52.386;9.980;2023-04-15T14:10:06;11.60;99.90
5429;DHT22;2737;52.386;9.980;2023-04-15T14:12:33;11.70;99.90
5429;DHT22;2737;52.386;9.980;2023-04-15T14:15:00;11.70;99.90
5429;DHT22;2737;52.386;9.980;2023-04-15T14:17:28;11.80;99.90
5429;DHT22;2737;52.386;9.980;2023-04-15T14:19:55;11.70;99.90
5429;DHT22;2737;52.386;9.980;2023-04-15T14:22:23;11.70;99.90
5429;DHT22;2737;52.386;9.980;2023-04-15T14:24:50;11.60;99.90
5429;DHT22;2737;52.386;9.980;2023-04-15T14:27:20;11.70;99.90
5429;DHT22;2737;52.386;9.980;2023-04-15T14:29:47;11.70;99.90
5429;DHT22;2737;52.386;9.980;2023-04-15T14:32:14;11.70;99.90
5429;DHT22;2737;52.386;9.980;2023-04-15T14:34:41;11.80;99.90
5429;DHT22;2737;52.386;9.980;2023-04-15T14:37:08;11.80;99.90
5429;DHT22;2737;52.386;9.980;2023-04-15T14:39:37;11.90;99.90
5429;DHT22;2737;52.386;9.980;2023-04-15T14:42:04;12.10;99.90
5429;DHT22;2737;52.386;9.980;2023-04-15T14:44:31;12.20;99.90
5429;DHT22;2737;52.386;9.980;2023-04-15T14:46:58;12.20;99.90
5429;DHT22;2737;52.386;9.980;2023-04-15T14:49:25;12.20;99.90
5429;DHT22;2737;52.386;9.980;2023-04-15T14:51:52;12.30;99.90
5429;DHT22;2737;52.386;9.980;2023-04-15T14:54:19;12.20;99.90
5429;DHT22;2737;52.386;9.980;2023-04-15T14:56:47;12.10;99.90
5429;DHT22;2737;52.386;9.980;2023-04-15T14:59:14;12.10;99.90
5429;DHT22;2737;52.386;9.980;2023-04-15T15:01:42;12.20;99.90
5429;DHT22;2737;52.386;9.980;2023-04-15T15:04:09;12.20;99.90
5429;DHT22;2737;52.386;9.980;2023-04-15T15:06:36;12.30;99.90
5429;DHT22;2737;52.386;9.980;2023-04-15T15:09:03;12.30;99.90
5429;DHT22;2737;52.386;9.980;2023-04-15T15:11:31;12.40;99.90
5429;DHT22;2737;52.386;9.980;2023-04-15T15:13:59;12.40;99.90
5429;DHT22;2737;52.386;9.980;2023-04-15T15:16:26;12.40;99.90
5429;DHT22;2737;52.386;9.980;2023-04-15T15:18:54;12.50;99.90
5429;DHT22;2737;52.386;9.980;2023-04-15T15:21:21;12.50;99.90
5429;DHT22;2737;52.386;9.980;2023-04-15T15:23:48;12.50;99.90
5429;DHT22;2737;52.386;9.980;2023-04-15T15:26:15;12.50;99.90
5429;DHT22;2737;52.386;9.980;2023-04-15T15:28:43;12.50;99.90
5429;DHT22;2737;52.386;9.980;2023-04-15T15:31:13;12.40;99.90
5429;DHT22;2737;52.386;9.980;2023-04-15T15:33:40;12.50;99.90
5429;DHT22;2737;52.386;9.980;2023-04-15T15:36:09;12.50;99.90
5429;DHT22;2737;52.386;9.980;2023-04-15T15:38:36;12.50;99.90
5429;DHT22;2737;52.386;9.980;2023-04-15T15:41:03;12.60;99.90
5429;DHT22;2737;52.386;9.980;2023-04-15T15:43:30;12.60;99.90
5429;DHT22;2737;52.386;9.980;2023-04-15T15:45:57;12.70;99.90
5429;DHT22;2737;52.386;9.980;2023-04-15T15:48:26;12.80;99.90
5429;DHT22;2737;52.386;9.980;2023-04-15T15:50:53;12.90;99.90
5429;DHT22;2737;52.386;9.980;2023-04-15T15:53:20;13.00;99.90
5429;DHT22;2737;52.386;9.980;2023-04-15T15:55:48;13.00;99.90
5429;DHT22;2737;52.386;9.980;2023-04-15T15:58:15;13.00;99.90
5429;DHT22;2737;52.386;9.980;2023-04-15T16:00:42;13.00;99.90
5429;DHT22;2737;52.386;9.980;2023-04-15T16:03:09;13.00;99.90
5429;DHT22;2737;52.386;9.980;2023-04-15T16:05:38;12.90;99.90
5429;DHT22;2737;52.386;9.980;2023-04-15T16:08:05;12.90;99.90
5429;DHT22;2737;52.386;9.980;2023-04-15T16:10:32;12.80;99.90
5429;DHT22;2737;52.386;9.980;2023-04-15T16:12:59;12.80;99.90
5429;DHT22;2737;52.386;9.980;2023-04-15T16:15:27;12.70;99.90
5429;DHT22;2737;52.386;9.980;2023-04-15T16:17:54;12.70;99.90
5429;DHT22;2737;52.386;9.980;2023-04-15T16:20:21;12.60;99.90
5429;DHT22;2737;52.386;9.980;2023-04-15T16:22:50;12.50;99.90
5429;DHT22;2737;52.386;9.980;2023-04-15T16:25:19;12.50;99.90